createdAt,value
2022-12-13T00:01:52.589Z,-0.60
2022-12-13T00:04:21.668Z,-0.60
2022-12-13T00:06:50.403Z,-0.60
2022-12-13T00:09:21.096Z,-0.60
2022-12-13T00:11:50.343Z,-0.60
2022-12-13T00:14:18.556Z,-0.60
2022-12-13T00:16:47.746Z,-0.70
2022-12-13T00:19:16.596Z,-0.70
2022-12-13T00:21:44.745Z,-0.70
2022-12-13T00:24:12.752Z,-0.80
2022-12-13T00:26:42.150Z,-0.80
2022-12-13T00:29:10.869Z,-0.70
2022-12-13T00:32:00.404Z,-0.80
2022-12-13T00:34:29.216Z,-0.70
2022-12-13T00:36:59.012Z,-0.80
2022-12-13T00:39:27.128Z,-0.80
2022-12-13T00:41:57.040Z,-0.80
2022-12-13T00:44:25.059Z,-0.80
2022-12-13T00:46:53.220Z,-0.80
2022-12-13T00:49:21.244Z,-0.80
2022-12-13T00:51:49.623Z,-0.80
2022-12-13T00:54:18.119Z,-0.80
2022-12-13T00:56:46.109Z,-0.80
2022-12-13T00:59:16.474Z,-0.80
2022-12-13T01:01:44.920Z,-0.90
2022-12-13T01:04:13.267Z,-0.90
2022-12-13T01:06:43.671Z,-0.90
2022-12-13T01:09:17.511Z,-0.90
2022-12-13T01:11:46.283Z,-0.90
2022-12-13T01:14:16.007Z,-0.90
2022-12-13T01:16:44.225Z,-1.00
2022-12-13T01:19:12.259Z,-0.90
2022-12-13T01:21:40.291Z,-1.00
2022-12-13T01:24:09.030Z,-0.90
2022-12-13T01:26:36.989Z,-1.00
2022-12-13T01:29:06.057Z,-1.00
2022-12-13T01:31:35.506Z,-1.00
2022-12-13T01:34:10.376Z,-1.00
2022-12-13T01:36:39.888Z,-1.00
2022-12-13T01:39:14.877Z,-1.00
2022-12-13T01:41:44.700Z,-1.00
2022-12-13T01:44:54.148Z,-1.00
2022-12-13T01:47:28.652Z,-1.00
2022-12-13T01:49:59.673Z,-1.00
2022-12-13T01:52:31.115Z,-1.00
2022-12-13T01:55:03.534Z,-1.10
2022-12-13T01:57:34.124Z,-1.10
2022-12-13T02:00:05.253Z,-1.10
2022-12-13T02:02:34.825Z,-1.10
2022-12-13T02:05:09.355Z,-1.10
2022-12-13T02:07:40.308Z,-1.20
2022-12-13T02:10:10.840Z,-1.10
2022-12-13T02:12:40.735Z,-1.20
2022-12-13T02:15:12.865Z,-1.20
2022-12-13T02:17:55.285Z,-1.20
2022-12-13T02:20:50.101Z,-1.30
2022-12-13T02:23:37.852Z,-1.30
2022-12-13T02:26:30.390Z,-1.20
2022-12-13T02:29:30.624Z,-1.30
2022-12-13T02:32:05.815Z,-1.30
2022-12-13T02:34:39.693Z,-1.30
2022-12-13T02:37:17.341Z,-1.30
2022-12-13T02:39:53.090Z,-1.30
2022-12-13T02:42:25.179Z,-1.40
2022-12-13T02:44:58.191Z,-1.40
2022-12-13T02:47:29.344Z,-1.40
2022-12-13T02:50:00.301Z,-1.40
2022-12-13T02:52:32.032Z,-1.30
2022-12-13T02:55:00.531Z,-1.40
2022-12-13T02:57:33.785Z,-1.40
2022-12-13T03:00:05.248Z,-1.40
2022-12-13T03:02:47.126Z,-1.40
2022-12-13T03:05:42.129Z,-1.50
2022-12-13T03:08:21.196Z,-1.50
2022-12-13T03:11:00.645Z,-1.50
2022-12-13T03:13:36.781Z,-1.50
2022-12-13T03:16:12.748Z,-1.50
2022-12-13T03:18:43.100Z,-1.50
2022-12-13T03:21:12.910Z,-1.60
2022-12-13T03:23:41.659Z,-1.60
2022-12-13T03:26:14.002Z,-1.60
2022-12-13T03:28:42.832Z,-1.60
2022-12-13T03:31:11.296Z,-1.60
2022-12-13T03:33:39.778Z,-1.60
2022-12-13T03:36:11.055Z,-1.60
2022-12-13T03:38:39.992Z,-1.60
2022-12-13T03:41:13.975Z,-1.60
2022-12-13T03:43:42.646Z,-1.60
2022-12-13T03:46:13.314Z,-1.60
2022-12-13T03:48:41.424Z,-1.60
2022-12-13T03:51:10.805Z,-1.60
2022-12-13T03:53:38.776Z,-1.60
2022-12-13T03:56:08.087Z,-1.60
2022-12-13T03:58:38.124Z,-1.70
2022-12-13T04:01:11.242Z,-1.60
2022-12-13T04:03:42.468Z,-1.70
2022-12-13T04:06:12.838Z,-1.60
2022-12-13T04:08:50.993Z,-1.70
2022-12-13T04:11:36.876Z,-1.60
2022-12-13T04:14:11.698Z,-1.60
2022-12-13T04:16:39.713Z,-1.60
2022-12-13T04:19:09.120Z,-1.70
2022-12-13T04:21:38.488Z,-1.60
2022-12-13T04:24:06.951Z,-1.70
2022-12-13T04:26:34.988Z,-1.70
2022-12-13T04:29:02.977Z,-1.60
2022-12-13T04:31:30.985Z,-1.70
2022-12-13T04:33:58.986Z,-1.60
2022-12-13T04:36:32.365Z,-1.60
2022-12-13T04:39:02.648Z,-1.60
2022-12-13T04:41:34.480Z,-1.70
2022-12-13T04:44:03.774Z,-1.70
2022-12-13T04:46:31.893Z,-1.70
2022-12-13T04:48:59.985Z,-1.70
2022-12-13T04:51:28.100Z,-1.70
2022-12-13T04:53:56.194Z,-1.70
2022-12-13T04:56:42.508Z,-1.70
2022-12-13T04:59:10.997Z,-1.70
2022-12-13T05:01:39.046Z,-1.70
2022-12-13T05:04:07.406Z,-1.70
2022-12-13T05:06:35.425Z,-1.70
2022-12-13T05:09:11.349Z,-1.70
2022-12-13T05:11:45.942Z,-1.70
2022-12-13T05:14:23.478Z,-1.70
2022-12-13T05:16:53.196Z,-1.70
2022-12-13T05:19:21.225Z,-1.70
2022-12-13T05:22:02.071Z,-1.70
2022-12-13T05:24:31.026Z,-1.70
2022-12-13T05:26:59.312Z,-1.70
2022-12-13T05:29:29.148Z,-1.70
2022-12-13T05:31:57.199Z,-1.70
2022-12-13T05:34:25.254Z,-1.70
2022-12-13T05:36:53.277Z,-1.70
2022-12-13T05:39:27.842Z,-1.70
2022-12-13T05:42:01.658Z,-1.70
2022-12-13T05:44:33.415Z,-1.70
2022-12-13T05:47:02.819Z,-1.70
2022-12-13T05:49:32.028Z,-1.70
2022-12-13T05:52:00.132Z,-1.70
2022-12-13T05:54:28.130Z,-1.70
2022-12-13T05:56:56.171Z,-1.70
2022-12-13T05:59:24.340Z,-1.70
2022-12-13T06:01:53.788Z,-1.70
2022-12-13T06:04:22.556Z,-1.70
2022-12-13T06:06:51.681Z,-1.70
2022-12-13T06:09:21.376Z,-1.60
2022-12-13T06:11:49.608Z,-1.60
2022-12-13T06:14:22.354Z,-1.60
2022-12-13T06:16:53.458Z,-1.60
2022-12-13T06:19:21.991Z,-1.70
2022-12-13T06:21:50.073Z,-1.70
2022-12-13T06:24:20.092Z,-1.70
2022-12-13T06:26:50.730Z,-1.70
2022-12-13T06:29:24.494Z,-1.70
2022-12-13T06:32:02.036Z,-1.70
2022-12-13T06:34:32.589Z,-1.70
2022-12-13T06:37:01.175Z,-1.70
2022-12-13T06:39:32.920Z,-1.70
2022-12-13T06:42:02.574Z,-1.70
2022-12-13T06:44:30.581Z,-1.80
2022-12-13T06:47:10.782Z,-1.80
2022-12-13T06:49:44.693Z,-1.80
2022-12-13T06:52:14.063Z,-1.80
2022-12-13T06:54:42.633Z,-1.80
2022-12-13T06:57:11.092Z,-1.80
2022-12-13T06:59:39.433Z,-1.80
2022-12-13T07:02:24.351Z,-1.80
2022-12-13T07:04:55.521Z,-1.80
2022-12-13T07:07:24.545Z,-1.80
2022-12-13T07:09:52.925Z,-1.80
2022-12-13T07:12:21.576Z,-1.80
2022-12-13T07:14:49.719Z,-1.80
2022-12-13T07:17:33.205Z,-1.80
2022-12-13T07:20:09.109Z,-1.80
2022-12-13T07:22:44.848Z,-1.80
2022-12-13T07:25:26.856Z,-1.80
2022-12-13T07:28:02.159Z,-1.70
2022-12-13T07:30:31.119Z,-1.80
2022-12-13T07:33:01.772Z,-1.80
2022-12-13T07:35:30.466Z,-1.70
2022-12-13T07:37:58.508Z,-1.70
2022-12-13T07:40:26.829Z,-1.70
2022-12-13T07:42:56.369Z,-1.70
2022-12-13T07:45:24.907Z,-1.70
2022-12-13T07:47:53.224Z,-1.60
2022-12-13T07:50:24.375Z,-1.60
2022-12-13T07:52:53.605Z,-1.60
2022-12-13T07:55:32.762Z,-1.60
2022-12-13T07:58:05.670Z,-1.60
2022-12-13T08:00:33.903Z,-1.60
2022-12-13T08:03:02.384Z,-1.60
2022-12-13T08:05:38.234Z,-1.70
2022-12-13T08:08:09.020Z,-1.60
2022-12-13T08:10:37.198Z,-1.60
2022-12-13T08:13:05.692Z,-1.60
2022-12-13T08:15:33.850Z,-1.60
2022-12-13T08:18:01.914Z,-1.50
2022-12-13T08:20:31.288Z,-1.60
2022-12-13T08:23:02.171Z,-1.50
2022-12-13T08:25:31.523Z,-1.50
2022-12-13T08:28:01.391Z,-1.50
2022-12-13T08:30:31.203Z,-1.50
2022-12-13T08:32:59.284Z,-1.50
2022-12-13T08:35:35.370Z,-1.40
2022-12-13T08:38:04.392Z,-1.40
2022-12-13T08:40:32.419Z,-1.40
2022-12-13T08:43:00.436Z,-1.40
2022-12-13T08:45:29.115Z,-1.40
2022-12-13T08:47:59.709Z,-1.40
2022-12-13T08:50:28.573Z,-1.40
2022-12-13T08:52:58.827Z,-1.40
2022-12-13T08:55:31.449Z,-1.30
2022-12-13T08:58:01.208Z,-1.30
2022-12-13T09:00:29.587Z,-1.30
2022-12-13T09:03:05.087Z,-1.20
2022-12-13T09:05:35.168Z,-1.20
2022-12-13T09:08:24.495Z,-1.20
2022-12-13T09:11:00.628Z,-1.20
2022-12-13T09:13:31.672Z,-1.20
2022-12-13T09:16:01.628Z,-1.20
2022-12-13T09:18:36.173Z,-1.20
2022-12-13T09:21:10.371Z,-1.10
2022-12-13T09:23:46.257Z,-1.20
2022-12-13T09:26:16.292Z,-1.10
2022-12-13T09:28:44.604Z,-1.10
2022-12-13T09:31:15.358Z,-1.10
2022-12-13T09:33:43.770Z,-1.10
2022-12-13T09:36:14.407Z,-1.10
2022-12-13T09:38:47.347Z,-1.00
2022-12-13T09:41:28.959Z,-1.00
2022-12-13T09:44:02.611Z,-1.00
2022-12-13T09:46:34.879Z,-1.00
2022-12-13T09:49:23.254Z,-1.00
2022-12-13T09:52:10.055Z,-1.00
2022-12-13T09:54:48.861Z,-1.00
2022-12-13T09:57:32.855Z,-0.90
2022-12-13T10:00:03.632Z,-0.90
2022-12-13T10:02:34.442Z,-0.90
2022-12-13T10:05:22.751Z,-0.90
2022-12-13T10:07:56.106Z,-0.80
2022-12-13T10:10:25.872Z,-0.90
2022-12-13T10:13:00.860Z,-0.80
2022-12-13T10:15:30.632Z,-0.80
2022-12-13T10:18:00.229Z,-0.80
2022-12-13T10:20:31.791Z,-0.80
2022-12-13T10:23:33.679Z,-0.80
2022-12-13T10:26:02.813Z,-0.80
2022-12-13T10:28:33.135Z,-0.80
2022-12-13T10:31:02.415Z,-0.80
2022-12-13T10:33:32.271Z,-0.80
2022-12-13T10:36:10.080Z,-0.80
2022-12-13T10:38:40.926Z,-0.80
2022-12-13T10:41:35.194Z,-0.80
2022-12-13T10:44:24.245Z,-0.80
2022-12-13T10:47:17.111Z,-0.80
2022-12-13T10:49:58.794Z,-0.80
2022-12-13T10:52:31.002Z,-0.80
2022-12-13T10:55:04.528Z,-0.80
2022-12-13T10:57:53.790Z,-0.80
2022-12-13T11:00:44.841Z,-0.80
2022-12-13T11:03:15.151Z,-0.80
2022-12-13T11:05:44.175Z,-0.80
2022-12-13T11:08:26.512Z,-0.70
2022-12-13T11:10:59.980Z,-0.70
2022-12-13T11:13:36.825Z,-0.70
2022-12-13T11:16:07.027Z,-0.60
2022-12-13T11:18:40.465Z,-0.60
2022-12-13T11:21:08.923Z,-0.50
2022-12-13T11:23:40.441Z,-0.50
2022-12-13T11:26:12.216Z,-0.50
2022-12-13T11:28:58.742Z,-0.50
2022-12-13T11:31:32.519Z,-0.40
2022-12-13T11:34:07.588Z,-0.40
2022-12-13T11:36:45.817Z,-0.40
2022-12-13T11:39:22.435Z,-0.50
2022-12-13T11:41:56.079Z,-0.60
2022-12-13T11:44:34.174Z,-0.60
2022-12-13T11:47:03.008Z,-0.60
2022-12-13T11:49:39.300Z,-0.70
2022-12-13T11:52:14.522Z,-0.70
2022-12-13T11:54:53.460Z,-0.80
2022-12-13T11:57:32.731Z,-0.90
2022-12-13T12:00:13.322Z,-0.90
2022-12-13T12:02:45.658Z,-0.90
2022-12-13T12:05:26.586Z,-0.80
2022-12-13T12:08:31.822Z,-0.70
2022-12-13T12:10:58.847Z,-0.70
2022-12-13T12:13:51.412Z,-0.70
2022-12-13T12:16:31.728Z,-0.60
2022-12-13T12:19:01.281Z,-0.60
2022-12-13T12:22:12.056Z,-0.50
2022-12-13T12:24:36.885Z,-0.50
2022-12-13T12:27:22.383Z,-0.40
2022-12-13T12:30:13.648Z,-0.40
2022-12-13T12:32:59.744Z,-0.40
2022-12-13T12:35:46.595Z,-0.40
2022-12-13T12:38:37.983Z,-0.50
2022-12-13T12:41:20.196Z,-0.40
2022-12-13T12:43:56.193Z,-0.40
2022-12-13T12:47:09.950Z,-0.40
2022-12-13T12:49:59.543Z,-0.40
2022-12-13T12:52:37.033Z,-0.40
2022-12-13T12:55:12.930Z,-0.40
2022-12-13T12:57:52.793Z,-0.40
2022-12-13T13:00:22.704Z,-0.40
2022-12-13T13:03:01.418Z,-0.40
2022-12-13T13:05:37.348Z,-0.40
2022-12-13T13:08:11.879Z,-0.40
2022-12-13T13:10:40.788Z,-0.50
2022-12-13T13:13:37.161Z,-0.50
2022-12-13T13:16:33.374Z,-0.50
2022-12-13T13:19:02.012Z,-0.50
2022-12-13T13:21:45.806Z,-0.50
2022-12-13T13:24:25.974Z,-0.50
2022-12-13T13:26:56.413Z,-0.50
2022-12-13T13:29:36.506Z,-0.50
2022-12-13T13:32:07.831Z,-0.50
2022-12-13T13:34:37.648Z,-0.60
2022-12-13T13:37:44.828Z,-0.60
2022-12-13T13:40:31.790Z,-0.60
2022-12-13T13:43:19.408Z,-0.60
2022-12-13T13:46:00.363Z,-0.70
2022-12-13T13:48:49.925Z,-0.70
2022-12-13T13:55:12.684Z,-0.80
2022-12-13T13:58:21.766Z,-0.80
2022-12-13T14:01:22.907Z,-0.80
2022-12-13T14:04:22.448Z,-0.80
2022-12-13T14:07:26.951Z,-0.80
2022-12-13T14:10:17.096Z,-0.80
2022-12-13T14:13:30.313Z,-0.80
2022-12-13T14:16:43.247Z,-0.80
2022-12-13T14:19:37.874Z,-0.80
2022-12-13T14:22:14.595Z,-0.80
2022-12-13T14:24:53.640Z,-0.80
2022-12-13T14:27:37.324Z,-0.90
2022-12-13T14:30:26.943Z,-0.90
2022-12-13T14:32:55.340Z,-0.90
2022-12-13T14:35:27.005Z,-0.90
2022-12-13T14:38:00.165Z,-0.90
2022-12-13T14:40:31.990Z,-0.90
2022-12-13T14:43:01.975Z,-1.00
2022-12-13T14:45:34.185Z,-1.00
2022-12-13T14:48:05.403Z,-1.00
2022-12-13T14:50:35.705Z,-1.00
2022-12-13T14:53:04.161Z,-1.00
2022-12-13T14:55:36.143Z,-1.10
2022-12-13T14:58:17.684Z,-1.10
2022-12-13T15:00:46.104Z,-1.10
2022-12-13T15:03:26.059Z,-1.10
2022-12-13T15:05:57.341Z,-1.10
2022-12-13T15:08:25.944Z,-1.10
2022-12-13T15:10:56.811Z,-1.10
2022-12-13T15:13:30.920Z,-1.20
2022-12-13T15:16:01.829Z,-1.20
2022-12-13T15:18:38.424Z,-1.20
2022-12-13T15:21:21.704Z,-1.20
2022-12-13T15:23:50.671Z,-1.20
2022-12-13T15:26:27.757Z,-1.20
2022-12-13T15:29:09.514Z,-1.30
2022-12-13T15:31:38.730Z,-1.30
2022-12-13T15:34:34.731Z,-1.30
2022-12-13T15:37:05.462Z,-1.30
2022-12-13T15:39:38.534Z,-1.20
2022-12-13T15:42:07.139Z,-1.30
2022-12-13T15:44:42.479Z,-1.30
2022-12-13T15:47:27.914Z,-1.30
2022-12-13T15:49:58.987Z,-1.40
2022-12-13T15:52:30.947Z,-1.40
2022-12-13T15:55:00.973Z,-1.40
2022-12-13T15:57:31.650Z,-1.40
2022-12-13T16:00:16.852Z,-1.40
2022-12-13T16:02:52.771Z,-1.40
2022-12-13T16:05:27.832Z,-1.40
2022-12-13T16:07:56.966Z,-1.40
2022-12-13T16:10:25.463Z,-1.50
2022-12-13T16:12:59.035Z,-1.50
2022-12-13T16:15:30.585Z,-1.50
2022-12-13T16:18:08.435Z,-1.40
2022-12-13T16:20:36.577Z,-1.50
2022-12-13T16:23:08.998Z,-1.50
2022-12-13T16:25:37.741Z,-1.50
2022-12-13T16:28:06.143Z,-1.50
2022-12-13T16:31:01.481Z,-1.50
2022-12-13T16:33:29.762Z,-1.60
2022-12-13T16:35:58.012Z,-1.50
2022-12-13T16:38:27.384Z,-1.50
2022-12-13T16:40:57.333Z,-1.50
2022-12-13T16:43:33.775Z,-1.60
2022-12-13T16:47:12.142Z,-1.60
2022-12-13T16:48:53.934Z,-1.60
2022-12-13T16:51:23.007Z,-1.50
2022-12-13T16:53:51.368Z,-1.60
2022-12-13T16:56:21.950Z,-1.60
2022-12-13T16:58:50.946Z,-1.60
2022-12-13T17:01:21.486Z,-1.60
2022-12-13T17:03:52.769Z,-1.60
2022-12-13T17:06:24.870Z,-1.60
2022-12-13T17:08:52.915Z,-1.60
2022-12-13T17:11:20.923Z,-1.60
2022-12-13T17:13:49.655Z,-1.60
2022-12-13T17:16:20.205Z,-1.60
2022-12-13T17:18:50.816Z,-1.60
2022-12-13T17:21:18.885Z,-1.60
2022-12-13T17:23:46.899Z,-1.60
2022-12-13T17:26:15.122Z,-1.60
2022-12-13T17:28:43.419Z,-1.60
2022-12-13T17:31:14.126Z,-1.60
2022-12-13T17:33:44.354Z,-1.60
2022-12-13T17:36:14.139Z,-1.60
2022-12-13T17:38:45.507Z,-1.60
2022-12-13T17:41:14.016Z,-1.60
2022-12-13T17:43:43.157Z,-1.60
2022-12-13T17:46:14.185Z,-1.60
2022-12-13T17:48:45.415Z,-1.60
2022-12-13T17:51:14.811Z,-1.60
2022-12-13T17:53:44.303Z,-1.60
2022-12-13T17:56:16.135Z,-1.60
2022-12-13T17:58:44.647Z,-1.60
2022-12-13T18:01:14.410Z,-1.60
2022-12-13T18:03:44.833Z,-1.50
2022-12-13T18:06:13.306Z,-1.60
2022-12-13T18:08:42.723Z,-1.60
2022-12-13T18:13:59.165Z,-1.60
2022-12-13T18:16:34.038Z,-1.60
2022-12-13T18:19:07.488Z,-1.30
2022-12-13T18:21:36.906Z,-0.80
2022-12-13T18:24:06.377Z,-0.90
2022-12-13T18:26:35.082Z,-0.90
2022-12-13T18:29:03.387Z,-1.00
2022-12-13T18:31:31.607Z,-1.10
2022-12-13T18:33:59.799Z,-1.20
2022-12-13T18:36:30.014Z,-1.30
2022-12-13T18:38:58.212Z,-1.30
2022-12-13T18:41:29.001Z,-1.40
2022-12-13T18:43:59.325Z,-1.40
2022-12-13T18:46:29.048Z,-1.50
2022-12-13T18:48:57.825Z,-1.50
2022-12-13T18:51:26.504Z,-1.50
2022-12-13T18:53:57.493Z,-1.50
2022-12-13T18:56:26.104Z,-1.50
2022-12-13T18:58:54.352Z,-1.50
2022-12-13T19:01:26.976Z,-1.50
2022-12-13T19:03:55.553Z,-1.60
2022-12-13T19:06:25.596Z,-1.60
2022-12-13T19:08:57.306Z,-1.60
2022-12-13T19:11:26.519Z,-1.50
2022-12-13T19:13:55.140Z,-1.60
2022-12-13T19:16:24.924Z,-1.60
2022-12-13T19:18:53.223Z,-1.60
2022-12-13T19:21:22.969Z,-1.60
2022-12-13T19:23:56.872Z,-1.70
2022-12-13T19:26:28.502Z,-1.70
2022-12-13T19:28:57.692Z,-1.70
2022-12-13T19:31:31.077Z,-1.60
2022-12-13T19:34:01.508Z,-1.70
2022-12-13T19:36:30.193Z,-1.70
2022-12-13T19:38:58.580Z,-1.70
2022-12-13T19:41:28.120Z,-1.70
2022-12-13T19:43:56.186Z,-1.70
2022-12-13T19:46:24.499Z,-1.60
2022-12-13T19:48:52.584Z,-1.60
2022-12-13T19:51:21.444Z,-1.60
2022-12-13T19:53:49.844Z,-1.60
2022-12-13T19:56:19.973Z,-1.60
2022-12-13T19:58:51.879Z,-1.60
2022-12-13T20:01:20.217Z,-1.60
2022-12-13T20:03:48.484Z,-1.60
2022-12-13T20:06:19.074Z,-1.60
2022-12-13T20:08:47.430Z,-1.60
2022-12-13T20:11:21.791Z,-1.60
2022-12-13T20:13:55.662Z,-1.60
2022-12-13T20:16:29.335Z,-1.60
2022-12-13T20:19:00.085Z,-1.60
2022-12-13T20:21:30.347Z,-1.60
2022-12-13T20:23:59.230Z,-1.60
2022-12-13T20:26:29.810Z,-1.70
2022-12-13T20:28:59.661Z,-1.70
2022-12-13T20:31:30.948Z,-1.70
2022-12-13T20:34:01.261Z,-1.70
2022-12-13T20:36:31.406Z,-1.70
2022-12-13T20:39:00.897Z,-1.70
2022-12-13T20:41:32.084Z,-1.70
2022-12-13T20:44:02.648Z,-1.70
2022-12-13T20:46:32.875Z,-1.70
2022-12-13T20:49:03.068Z,-1.70
2022-12-13T20:51:32.709Z,-1.80
2022-12-13T20:54:01.051Z,-1.70
2022-12-13T20:56:30.459Z,-1.80
2022-12-13T20:58:58.452Z,-1.80
2022-12-13T21:01:30.329Z,-1.80
2022-12-13T21:04:01.056Z,-1.80
2022-12-13T21:06:29.888Z,-1.80
2022-12-13T21:09:02.346Z,-1.80
2022-12-13T21:11:33.383Z,-1.80
2022-12-13T21:14:08.861Z,-1.80
2022-12-13T21:16:41.320Z,-1.80
2022-12-13T21:19:12.072Z,-1.80
2022-12-13T21:21:40.188Z,-1.80
2022-12-13T21:24:08.989Z,-1.90
2022-12-13T21:26:37.241Z,-1.90
2022-12-13T21:29:09.923Z,-1.90
2022-12-13T21:31:40.411Z,-1.90
2022-12-13T21:34:09.083Z,-1.90
2022-12-13T21:36:38.712Z,-2.00
2022-12-13T21:39:11.845Z,-1.90
2022-12-13T21:41:39.995Z,-1.90
2022-12-13T21:44:08.436Z,-2.00
2022-12-13T21:47:10.136Z,-2.00
2022-12-13T21:49:25.756Z,-2.00
2022-12-13T21:51:53.751Z,-2.00
2022-12-13T21:54:22.696Z,-2.00
2022-12-13T21:57:07.977Z,-2.10
2022-12-13T21:59:36.158Z,-2.10
2022-12-13T22:02:12.963Z,-2.20
2022-12-13T22:04:45.005Z,-2.20
2022-12-13T22:07:14.995Z,-2.20
2022-12-13T22:09:43.140Z,-2.20
2022-12-13T22:12:17.794Z,-2.20
2022-12-13T22:14:45.923Z,-2.30
2022-12-13T22:17:14.273Z,-2.30
2022-12-13T22:19:43.692Z,-2.40
2022-12-13T22:22:18.325Z,-2.50
2022-12-13T22:24:52.833Z,-2.50
2022-12-13T22:27:26.135Z,-2.50
2022-12-13T22:29:56.562Z,-2.60
2022-12-13T22:32:25.279Z,-2.60
2022-12-13T22:34:54.982Z,-2.70
2022-12-13T22:37:23.755Z,-2.70
2022-12-13T22:39:51.983Z,-2.70
2022-12-13T22:42:20.375Z,-2.70
2022-12-13T22:44:49.899Z,-2.70
2022-12-13T22:47:17.932Z,-2.80
2022-12-13T22:49:48.714Z,-2.80
2022-12-13T22:52:20.068Z,-2.80
2022-12-13T22:54:48.352Z,-2.80
2022-12-13T22:57:16.348Z,-2.80
2022-12-13T22:59:44.716Z,-2.80
2022-12-13T23:02:12.928Z,-2.80
2022-12-13T23:04:41.046Z,-2.90
2022-12-13T23:07:09.014Z,-2.90
2022-12-13T23:09:38.548Z,-2.90
2022-12-13T23:12:26.207Z,-2.90
2022-12-13T23:14:54.724Z,-2.90
2022-12-13T23:17:22.699Z,-3.00
2022-12-13T23:19:53.545Z,-3.00
2022-12-13T23:22:22.386Z,-3.00
2022-12-13T23:24:52.430Z,-3.00
2022-12-13T23:27:22.374Z,-3.10
2022-12-13T23:29:50.406Z,-3.10
2022-12-13T23:32:18.558Z,-3.10
2022-12-13T23:34:46.688Z,-3.10
2022-12-13T23:37:14.739Z,-3.10
2022-12-13T23:39:45.055Z,-3.20
2022-12-13T23:42:14.459Z,-3.20
2022-12-13T23:44:43.211Z,-3.20
2022-12-13T23:47:11.548Z,-3.20
2022-12-13T23:49:39.606Z,-3.20
2022-12-13T23:52:07.578Z,-3.20
2022-12-13T23:54:35.640Z,-3.20
2022-12-13T23:57:03.849Z,-3.20
2022-12-13T23:59:33.199Z,-3.20
